Map

Track Data

SID SEASON NUMBER BASIN SUBBASIN NAME ISO_TIME NATURE LAT LON WMO_WIND WMO_PRES WMO_AGENCY TRACK_TYPE DIST2LAND LANDFALL IFLAG USA_AGENCY USA_ATCF_ID USA_LAT USA_LON USA_RECORD USA_STATUS USA_WIND USA_PRES USA_SSHS USA_R34_NE USA_R34_SE USA_R34_SW USA_R34_NW USA_R50_NE USA_R50_SE USA_R50_SW USA_R50_NW USA_R64_NE USA_R64_SE USA_R64_SW USA_R64_NW USA_POCI USA_ROCI USA_RMW USA_EYE TOKYO_LAT TOKYO_LON TOKYO_GRADE TOKYO_WIND TOKYO_PRES TOKYO_R50_DIR TOKYO_R50_LONG TOKYO_R50_SHORT TOKYO_R30_DIR TOKYO_R30_LONG TOKYO_R30_SHORT TOKYO_LAND CMA_LAT CMA_LON CMA_CAT CMA_WIND CMA_PRES HKO_LAT HKO_LON HKO_CAT HKO_WIND HKO_PRES NEWDELHI_LAT NEWDELHI_LON NEWDELHI_GRADE NEWDELHI_WIND NEWDELHI_PRES NEWDELHI_CI NEWDELHI_DP NEWDELHI_POCI REUNION_LAT REUNION_LON REUNION_TYPE REUNION_WIND REUNION_PRES REUNION_TNUM REUNION_CI REUNION_RMW REUNION_R34_NE REUNION_R34_SE REUNION_R34_SW REUNION_R34_NW REUNION_R50_NE REUNION_R50_SE REUNION_R50_SW REUNION_R50_NW REUNION_R64_NE REUNION_R64_SE REUNION_R64_SW REUNION_R64_NW BOM_LAT BOM_LON BOM_TYPE BOM_WIND BOM_PRES BOM_TNUM BOM_CI BOM_RMW BOM_R34_NE BOM_R34_SE BOM_R34_SW BOM_R34_NW BOM_R50_NE BOM_R50_SE BOM_R50_SW BOM_R50_NW BOM_R64_NE BOM_R64_SE BOM_R64_SW BOM_R64_NW BOM_ROCI BOM_POCI BOM_EYE BOM_POS_METHOD BOM_PRES_METHOD NADI_LAT NADI_LON NADI_CAT NADI_WIND NADI_PRES WELLINGTON_LAT WELLINGTON_LON WELLINGTON_WIND WELLINGTON_PRES DS824_LAT DS824_LON DS824_STAGE DS824_WIND DS824_PRES TD9636_LAT TD9636_LON TD9636_STAGE TD9636_WIND TD9636_PRES TD9635_LAT TD9635_LON TD9635_WIND TD9635_PRES TD9635_ROCI NEUMANN_LAT NEUMANN_LON NEUMANN_CLASS NEUMANN_WIND NEUMANN_PRES MLC_LAT MLC_LON MLC_CLASS MLC_WIND MLC_PRES USA_GUST BOM_GUST BOM_GUST_PER REUNION_GUST REUNION_GUST_PER USA_SEAHGT USA_SEARAD_NE USA_SEARAD_SE USA_SEARAD_SW USA_SEARAD_NW STORM_SPEED STORM_DIR
1945288N07092 1945 71 NI BB NOT_NAMED 1945-10-14 18:00:00 TS 7.30000 91.6000 main 441 441 O________O____ jtwc_io IO091945 7.30000 91.6000 -1 7.30000 91.6000 TC 5 318
1945288N07092 1945 71 NI BB NOT_NAMED 1945-10-14 21:00:00 TS 7.49249 91.4275 main 471 471 P________P____ IO091945 7.49249 91.4275 -1 7.49249 91.4275 TC 6 315
1945288N07092 1945 71 NI BB NOT_NAMED 1945-10-15 00:00:00 TS 7.70000 91.2000 main 500 500 O________O____ jtwc_io IO091945 7.70000 91.2000 -1 7.70000 91.2000 TC 35 7 309
1945288N07092 1945 71 NI BB NOT_NAMED 1945-10-15 03:00:00 TS 7.93111 90.8822 main 540 540 P________PO___ IO091945 7.93500 90.8800 -1 7.93500 90.8800 TC 35 7.90000 90.9000 2 9 306
1945288N07092 1945 71 NI BB NOT_NAMED 1945-10-15 06:00:00 TS 8.20731 90.4899 main 595 595 O________OP___ jtwc_io IO091945 8.20000 90.5000 -1 8.20000 90.5000 TC 35 8.23655 90.4496 2 10 306
1945288N07092 1945 71 NI BB NOT_NAMED 1945-10-15 09:00:00 TS 8.51590 90.0779 main 650 650 P________PP___ IO091945 8.50000 90.1000 -1 8.50000 90.1000 TC 35 8.55829 90.0189 2 10 307
1945288N07092 1945 71 NI BB NOT_NAMED 1945-10-15 12:00:00 TS 8.81695 89.6762 main 705 705 O________OP___ jtwc_io IO091945 8.80000 89.7000 -1 8.80000 89.7000 TC 35 8.85085 89.6288 2 9 307
1945288N07092 1945 71 NI BB NOT_NAMED 1945-10-15 15:00:00 TS 9.07666 89.3133 main 760 760 P________PO___ IO091945 9.06500 89.3200 -1 9.06500 89.3200 TC 35 9.10000 89.3000 3 8 306
1945288N07092 1945 71 NI BB NOT_NAMED 1945-10-15 18:00:00 TS 9.30043 89.0136 main 799 796 O________OP___ jtwc_io IO091945 9.30000 89.0000 -1 9.30000 89.0000 TC 35 9.30129 89.0408 3 6 309
1945288N07092 1945 71 NI BB NOT_NAMED 1945-10-15 21:00:00 TS 9.48127 88.8126 main 799 781 P________PP___ IO091945 9.47735 88.8147 -1 9.47735 88.8147 TC 50 9.48911 88.8083 3 6 313
1945288N07092 1945 71 NI BB NOT_NAMED 1945-10-16 00:00:00 TS 9.70247 88.5822 main 784 753 O________OP___ jtwc_io IO091945 9.70000 88.6000 -1 9.70000 88.6000 TC 65 9.70741 88.5467 3 8 313
1945288N07092 1945 71 NI BB NOT_NAMED 1945-10-16 03:00:00 TS 10.0366 88.2116 main 753 720 P________PO___ IO091945 10.0549 88.2174 -1 10.0549 88.2174 TC 65 10.0000 88.2000 4 12 311
1945288N07092 1945 71 NI BB NOT_NAMED 1945-10-16 06:00:00 TS 10.4752 87.6926 main 725 685 O________OP___ jtwc_io IO091945 10.5000 87.7000 -1 10.5000 87.7000 TC 65 10.4256 87.6779 4 15 309
1945288N07092 1945 71 NI BB NOT_NAMED 1945-10-16 09:00:00 TS 10.9603 87.0711 main 689 648 P________PP___ IO091945 10.9776 87.0725 -1 10.9776 87.0725 TC 65 10.9259 87.0684 4 16 309
1945288N07092 1945 71 NI BB NOT_NAMED 1945-10-16 12:00:00 TS 11.4877 86.4082 main 648 611 O________OP___ jtwc_io IO091945 11.5000 86.4000 -1 11.5000 86.4000 TC 65 11.4631 86.4246 4 17 311
1945288N07092 1945 71 NI BB NOT_NAMED 1945-10-16 15:00:00 TS 12.0282 85.7948 main 611 537 P________PO___ IO091945 12.0423 85.7923 -1 12.0423 85.7923 TC 65 12.0000 85.8000 4 16 313
1945288N07092 1945 71 NI BB NOT_NAMED 1945-10-16 18:00:00 TS 12.5865 85.1970 main 537 463 O________OP___ jtwc_io IO091945 12.6000 85.2000 -1 12.6000 85.2000 TC 65 12.5595 85.1910 4 17 314
1945288N07092 1945 71 NI BB NOT_NAMED 1945-10-16 21:00:00 TS 13.1786 84.5575 main 453 387 P________PP___ IO091945 13.2177 84.5255 -1 13.2177 84.5255 TC 65 13.1002 84.6214 4 16 314
1945288N07092 1945 71 NI BB NOT_NAMED 1945-10-17 00:00:00 TS 13.6553 84.0470 main 372 342 O________OP___ jtwc_io IO091945 13.7000 84.0000 -1 13.7000 84.0000 TC 65 13.5658 84.1410 4 10 314
1945288N07092 1945 71 NI BB NOT_NAMED 1945-10-17 03:00:00 TS 13.8882 83.8064 main 342 342 P________PO___ IO091945 13.8822 83.8095 -1 13.8822 83.8095 TC 65 13.9000 83.8000 4 4 315
1945288N07092 1945 71 NI BB NOT_NAMED 1945-10-17 06:00:00 TS 13.9453 83.7517 main 342 327 O________OP___ jtwc_io IO091945 13.9000 83.8000 -1 13.9000 83.8000 TC 65 14.0359 83.6551 4 1 315
1945288N07092 1945 71 NI BB NOT_NAMED 1945-10-17 09:00:00 TS 13.9573 83.7396 main 327 327 P________PP___ IO091945 13.9150 83.7850 -1 13.9150 83.7850 TC 65 14.0418 83.6488 4 0 0
1945288N07092 1945 71 NI BB NOT_NAMED 1945-10-17 12:00:00 TS 13.9256 83.7727 main 342 342 O________OP___ jtwc_io IO091945 13.9000 83.8000 -1 13.9000 83.8000 TC 65 13.9768 83.7181 4 1 136
1945288N07092 1945 71 NI BB NOT_NAMED 1945-10-17 15:00:00 TS 13.9000 83.8000 main 342 342 P________PO___ IO091945 13.9000 83.8000 -1 13.9000 83.8000 TC 65 13.9000 83.8000 4 0 0
1945288N07092 1945 71 NI BB NOT_NAMED 1945-10-17 18:00:00 TS 13.9000 83.8000 main 342 342 O________OP___ jtwc_io IO091945 13.9000 83.8000 -1 13.9000 83.8000 TC 65 13.9000 83.8000 4 0 0
1945288N07092 1945 71 NI BB NOT_NAMED 1945-10-17 21:00:00 TS 13.9000 83.8000 main 342 342 P________PP___ IO091945 13.9000 83.8000 -1 13.9000 83.8000 TC 65 13.9000 83.8000 4 0 0
1945288N07092 1945 71 NI BB NOT_NAMED 1945-10-18 00:00:00 TS 13.9000 83.8000 main 342 342 O________OP___ jtwc_io IO091945 13.9000 83.8000 -1 13.9000 83.8000 TC 65 13.9000 83.8000 4 0 0
1945288N07092 1945 71 NI BB NOT_NAMED 1945-10-18 03:00:00 TS 13.9000 83.8000 main 342 342 P________PO___ IO091945 13.9000 83.8000 -1 13.9000 83.8000 TC 65 13.9000 83.8000 4 0 0
1945288N07092 1945 71 NI BB NOT_NAMED 1945-10-18 06:00:00 TS 13.9000 83.8000 main 342 342 O________OP___ jtwc_io IO091945 13.9000 83.8000 -1 13.9000 83.8000 TC 65 13.9000 83.8000 4 0 0
1945288N07092 1945 71 NI BB NOT_NAMED 1945-10-18 09:00:00 TS 13.9000 83.8000 main 342 342 P________PP___ IO091945 13.9000 83.8000 -1 13.9000 83.8000 TC 65 13.9000 83.8000 4 0 0
1945288N07092 1945 71 NI BB NOT_NAMED 1945-10-18 12:00:00 TS 13.9000 83.8000 main 342 342 O________OP___ jtwc_io IO091945 13.9000 83.8000 -1 13.9000 83.8000 TC 65 13.9000 83.8000 4 0 0
1945288N07092 1945 71 NI BB NOT_NAMED 1945-10-18 15:00:00 TS 13.9000 83.8000 main 342 342 P________PO___ IO091945 13.9000 83.8000 -1 13.9000 83.8000 TC 65 13.9000 83.8000 4 0 121
1945288N07092 1945 71 NI BB NOT_NAMED 1945-10-18 18:00:00 TS 13.8714 83.8295 main 342 342 O________OP___ jtwc_io IO091945 13.9000 83.8000 -1 13.9000 83.8000 TC 65 13.8143 83.8885 4 1 135
1945288N07092 1945 71 NI BB NOT_NAMED 1945-10-18 21:00:00 TS 13.8372 83.8644 main 357 357 P________PP___ IO091945 13.8850 83.8150 -1 13.8850 83.8150 TC 65 13.7418 83.9632 4 0 0
1945288N07092 1945 71 NI BB NOT_NAMED 1945-10-19 00:00:00 TS 13.8494 83.8521 main 357 342 O________OP___ jtwc_io IO091945 13.9000 83.8000 -1 13.9000 83.8000 TC 65 13.7484 83.9564 4 1 317
1945288N07092 1945 71 NI BB NOT_NAMED 1945-10-19 03:00:00 TS 13.9014 83.8028 main 342 312 P________PO___ IO091945 13.9022 83.8043 -1 13.9022 83.8043 TC 65 13.9000 83.8000 4 4 314
1945288N07092 1945 71 NI BB NOT_NAMED 1945-10-19 06:00:00 TS 14.1556 83.5324 main 297 223 O________OP___ jtwc_io IO091945 14.1000 83.6000 -1 14.1000 83.6000 TC 65 14.2669 83.3971 4 12 314
1945288N07092 1945 71 NI BB NOT_NAMED 1945-10-19 09:00:00 TS 14.7100 82.9270 main 218 114 P________PP___ IO091945 14.6756 82.9684 -1 14.6756 82.9684 TC 65 14.7790 82.8442 4 18 314
1945288N07092 1945 71 NI BB NOT_NAMED 1945-10-19 12:00:00 TS 15.3921 82.2063 main 114 35 O________OP___ jtwc_io IO091945 15.4000 82.2000 -1 15.4000 82.2000 TC 65 15.3764 82.2189 4 18 316
1945288N07092 1945 71 NI BB NOT_NAMED 1945-10-19 15:00:00 TS 16.0098 81.6130 main 35 0 P________PO___ IO091945 16.0147 81.6196 -1 16.0147 81.6196 TC 65 16.0000 81.6000 4 16 318
1945288N07092 1945 71 NI BB NOT_NAMED 1945-10-19 18:00:00 TS 16.5911 81.0678 main 0 0 O________OP___ jtwc_io IO091945 16.6000 81.1000 -1 16.6000 81.1000 TC 65 16.5732 81.0035 4 16 318
1945288N07092 1945 71 NI BB NOT_NAMED 1945-10-19 21:00:00 TS 17.1577 80.5225 main 0 0 P________PP___ IO091945 17.1575 80.5624 -1 17.1575 80.5624 TC 45 17.1581 80.4426 4 15 319
1945288N07092 1945 71 NI BB NOT_NAMED 1945-10-20 00:00:00 TS 17.7129 80.0617 main 0 0 O________OP___ jtwc_io IO091945 17.7000 80.1000 -1 17.7000 80.1000 TC 25 17.7388 79.9852 4 14 325
1945288N07092 1945 71 NI BB NOT_NAMED 1945-10-20 03:00:00 TS 18.2716 79.6969 main 0 0 P________PO___ IO091945 18.2574 79.6953 -1 18.2574 79.6953 TC 25 18.3000 79.7000 1 12 336
1945288N07092 1945 71 NI BB NOT_NAMED 1945-10-20 06:00:00 TS 18.8135 79.5360 main 0 0 O________OP___ jtwc_io IO091945 18.8000 79.5000 -1 18.8000 79.5000 TC 25 18.8406 79.6080 1 11 356
1945288N07092 1945 71 NI BB NOT_NAMED 1945-10-20 09:00:00 TS 19.3293 79.6293 main 0 0 P________PP___ IO091945 19.3149 79.5947 -1 19.3149 79.5947 TC 25 19.3583 79.6986 1 11 20
1945288N07092 1945 71 NI BB NOT_NAMED 1945-10-20 12:00:00 TS 19.8156 79.9133 main 0 0 O________OP___ jtwc_io IO091945 19.8000 79.9000 -1 19.8000 79.9000 TC 25 19.8469 79.9400 1 11 32
1945288N07092 1945 71 NI BB NOT_NAMED 1945-10-20 15:00:00 TS 20.2766 80.2701 main 0 0 P________PO___ IO091945 20.2650 80.2551 -1 20.2650 80.2551 TC 25 20.3000 80.3000 1 12 40
1945288N07092 1945 71 NI BB NOT_NAMED 1945-10-20 18:00:00 TS 20.7055 80.7191 main 0 0 O________OP___ jtwc_io IO091945 20.7000 80.7000 -1 20.7000 80.7000 TC 25 20.7137 80.7479 1 12 47
1945288N07092 1945 71 NI BB NOT_NAMED 1945-10-20 21:00:00 TS 21.1023 81.2202 main 0 0 P________PP___ IO091945 21.1078 81.1895 -1 21.1078 81.1895 TC 25 21.0949 81.2610 1 12 52
1945288N07092 1945 71 NI BB NOT_NAMED 1945-10-21 00:00:00 TS 21.4768 81.7593 main 0 0 O________OP___ jtwc_io IO091945 21.5000 81.7000 -1 21.5000 81.7000 TC 25 21.4537 81.8187 1 13 58
1945288N07092 1945 71 NI BB NOT_NAMED 1945-10-21 03:00:00 NR 21.8000 82.4000 main 0 __________O___ IO091945 -1 TC 21.8000 82.4000 1 14 61

About IBTrACS Database

This database is a web-friendly format of International Best Track Archive for Climate Stewardship (IBTrACS), a global best track data archive curated by NOAA dating back to 1842.

Updated: 2021-10-21